Saltar para o conteúdo principal

Avis, Benavila

ID 1210824 · 39.1000, -7.8667 mapa

Última leitura · 2026-05-09 19:00 (Europe/Lisbon)

Temperatura
15.5 °C
Humidade
84 %
Pressão
Precipitação
0.1 mm
Radiação
739 W/m²
Velocidade do vento
14.4 km/h
Direcção do vento
W · Oeste

Histórico de 24 horas

Hora (Europe/Lisbon) Temperatura Humidade Pressão Chuva Vento Direcção
2026-05-09 19:00 15.5 °C 84 % 0.1 mm 14.4 km/h W
2026-05-09 18:00 16.7 °C 81 % 1.6 mm 13.3 km/h SW
2026-05-09 17:00 17.5 °C 73 % 0.5 mm 17.3 km/h SW
2026-05-09 16:00 17.4 °C 70 % 0.3 mm 14.8 km/h SW
2026-05-09 15:00 19.6 °C 55 % 0.0 mm 22.7 km/h SW
2026-05-09 14:00 19.2 °C 58 % 0.0 mm 17.6 km/h SW
2026-05-09 13:00 17.7 °C 77 % 0.0 mm 22.3 km/h SW
2026-05-09 12:00 15.4 °C 98 % 2.0 mm 16.6 km/h SW
2026-05-09 11:00 14.7 °C 99 % 2.8 mm 7.9 km/h SW
2026-05-09 10:00 14.0 °C 99 % 0.1 mm 6.5 km/h SE
2026-05-09 09:00 13.2 °C 99 % 1.7 mm 3.6 km/h S
2026-05-09 08:00 13.2 °C 97 % 0.2 mm 11.9 km/h SE
2026-05-09 07:00 13.1 °C 99 % 0.2 mm 11.5 km/h SE
2026-05-09 06:00 13.3 °C 98 % 0.0 mm
2026-05-09 05:00 13.2 °C 99 % 0.0 mm 9.0 km/h SE
2026-05-09 04:00 13.1 °C 99 % 0.3 mm 10.1 km/h SE
2026-05-09 03:00 12.6 °C 99 % 0.0 mm 9.7 km/h SE
2026-05-09 02:00 12.6 °C 99 % 0.0 mm 9.7 km/h SE
2026-05-09 01:00 13.5 °C 97 % 0.6 mm 6.5 km/h S
2026-05-09 00:00 14.2 °C 91 % 0.2 mm 11.9 km/h S
2026-05-08 23:00 15.1 °C 88 % 0.0 mm 14.8 km/h SW
2026-05-08 22:00 14.8 °C 92 % 0.0 mm 3.6 km/h SW
2026-05-08 21:00 15.7 °C 83 % 0.0 mm 9.7 km/h SW
2026-05-08 20:00 18.4 °C 55 % 0.0 mm 13.3 km/h SW